CheckWX is a tool to help pilots better visualize weather data.  It is not intended as a substitute for an official pre-flight weather briefing.

04:53:34 UTC

KAUN METAR
Auburn Municipal Airport
Auburn, California, USA
Current

19 mins ago

KAUN 260435Z AUTO 00000KT 10SM CLR A2999 RMK A01
Observed
Aug-26 @ 04:35 UTC
Visibility
10 SM
Flight Rules
VFR
Cloud Levels
  • Clear skies
Altimeter
29.99" Hg
Pressure
1015.62 hPa
Previous

39 mins ago

KAUN 260415Z AUTO 00000KT 10SM CLR 25/13 A2999 RMK A01
Observed
Aug-26 @ 04:15 UTC
Visibility
10 SM
Flight Rules
VFR
Cloud Levels
  • Clear skies
Temperature
25°C / 77°F
Dewpoint
13°C / 55°F
Humidity
47%
Altimeter
29.99" Hg
Pressure
1015.62 hPa
Previous

59 mins ago

KAUN 260355Z AUTO 00000KT 10SM CLR 25/12 A2998 RMK A01
Observed
Aug-26 @ 03:55 UTC
Visibility
10 SM
Flight Rules
VFR
Cloud Levels
  • Clear skies
Temperature
25°C / 77°F
Dewpoint
12°C / 54°F
Humidity
44%
Altimeter
29.98" Hg
Pressure
1015.22 hPa